createdAt,value
2022-11-05T00:02:22.276Z,7.18
2022-11-05T00:05:07.652Z,7.14
2022-11-05T00:08:00.541Z,7.21
2022-11-05T00:10:30.138Z,7.19
2022-11-05T00:13:18.680Z,7.20
2022-11-05T00:16:04.484Z,7.19
2022-11-05T00:18:31.011Z,7.11
2022-11-05T00:20:57.788Z,7.04
2022-11-05T00:23:42.684Z,6.98
2022-11-05T00:26:11.398Z,7.02
2022-11-05T00:28:38.875Z,7.00
2022-11-05T00:31:09.653Z,7.00
2022-11-05T00:33:37.129Z,7.05
2022-11-05T00:36:04.565Z,7.11
2022-11-05T00:38:30.933Z,7.13
2022-11-05T00:40:57.353Z,7.13
2022-11-05T00:43:42.264Z,7.17
2022-11-05T00:46:09.146Z,7.24
2022-11-05T00:48:53.901Z,7.33
2022-11-05T00:51:20.531Z,7.13
2022-11-05T00:53:46.826Z,7.05
2022-11-05T00:56:13.400Z,7.04
2022-11-05T00:58:39.781Z,7.09
2022-11-05T01:01:06.359Z,7.06
2022-11-05T01:03:36.133Z,7.00
2022-11-05T01:06:14.518Z,7.09
2022-11-05T01:08:45.315Z,7.05
2022-11-05T01:11:33.002Z,7.06
2022-11-05T01:14:11.633Z,7.16
2022-11-05T01:16:39.438Z,7.00
2022-11-05T01:19:08.012Z,7.09
2022-11-05T01:21:34.452Z,7.05
2022-11-05T01:24:01.747Z,6.97
2022-11-05T01:26:28.480Z,7.06
2022-11-05T01:28:57.591Z,7.04
2022-11-05T01:31:24.661Z,7.22
2022-11-05T01:33:51.050Z,7.16
2022-11-05T01:36:17.768Z,7.22
2022-11-05T01:38:44.358Z,7.18
2022-11-05T01:41:11.130Z,7.20
2022-11-05T01:43:48.524Z,7.24
2022-11-05T01:46:17.744Z,7.34
2022-11-05T01:48:44.171Z,7.28
2022-11-05T01:51:15.003Z,7.23
2022-11-05T01:53:55.802Z,7.12
2022-11-05T01:56:37.557Z,7.06
2022-11-05T01:59:11.620Z,7.06
2022-11-05T02:01:38.122Z,7.05
2022-11-05T02:04:09.840Z,7.04
2022-11-05T02:06:46.209Z,7.07
2022-11-05T02:09:20.536Z,7.03
2022-11-05T02:11:47.386Z,6.93
2022-11-05T02:14:13.677Z,6.93
2022-11-05T02:16:49.079Z,6.93
2022-11-05T02:19:24.382Z,6.97
2022-11-05T02:22:09.418Z,7.01
2022-11-05T02:25:06.757Z,7.08
2022-11-05T02:28:10.688Z,7.28
2022-11-05T02:31:04.614Z,7.29
2022-11-05T02:33:44.075Z,7.24
2022-11-05T02:36:25.801Z,7.35
2022-11-05T02:39:11.694Z,7.40
2022-11-05T02:42:05.743Z,7.41
2022-11-05T02:44:53.074Z,7.32
2022-11-05T02:47:44.049Z,7.24
2022-11-05T02:50:44.502Z,7.35
2022-11-05T02:53:13.856Z,7.22
2022-11-05T02:55:46.853Z,7.23
2022-11-05T02:58:13.366Z,7.20
2022-11-05T03:00:53.049Z,7.23
2022-11-05T03:03:53.414Z,7.36
2022-11-05T03:07:01.854Z,7.26
2022-11-05T03:09:35.813Z,7.32
2022-11-05T03:12:23.925Z,7.38
2022-11-05T03:15:03.376Z,7.43
2022-11-05T03:17:50.042Z,7.46
2022-11-05T03:20:23.490Z,7.30
2022-11-05T03:22:55.201Z,7.23
2022-11-05T03:25:24.067Z,7.28
2022-11-05T03:27:57.391Z,7.13
2022-11-05T03:30:25.147Z,7.13
2022-11-05T03:32:59.137Z,7.18
2022-11-05T03:35:33.856Z,7.19
2022-11-05T03:38:04.130Z,7.13
2022-11-05T03:40:35.174Z,7.19
2022-11-05T03:43:05.425Z,7.25
2022-11-05T03:45:38.219Z,7.31
2022-11-05T03:48:06.124Z,7.38
2022-11-05T03:50:45.081Z,7.43
2022-11-05T03:53:18.328Z,7.46
2022-11-05T03:56:04.124Z,7.44
2022-11-05T03:58:31.353Z,7.39
2022-11-05T04:01:02.071Z,7.40
2022-11-05T04:03:35.935Z,7.32
2022-11-05T04:06:26.197Z,7.47
2022-11-05T04:09:11.012Z,7.48
2022-11-05T04:11:55.770Z,7.47
2022-11-05T04:14:22.070Z,7.53
2022-11-05T04:17:06.332Z,7.49
2022-11-05T04:20:01.868Z,7.34
2022-11-05T04:22:49.745Z,7.27
2022-11-05T04:25:17.271Z,7.27
2022-11-05T04:27:44.434Z,7.32
2022-11-05T04:30:21.425Z,7.44
2022-11-05T04:33:01.595Z,7.41
2022-11-05T04:35:30.715Z,7.43
2022-11-05T04:37:57.088Z,7.46
2022-11-05T04:40:23.929Z,7.50
2022-11-05T04:42:50.237Z,7.45
2022-11-05T04:45:16.561Z,7.51
2022-11-05T04:47:42.955Z,7.57
2022-11-05T04:50:10.540Z,7.61
2022-11-05T04:52:36.861Z,7.44
2022-11-05T04:55:03.644Z,7.43
2022-11-05T04:57:29.926Z,7.39
2022-11-05T04:59:56.340Z,7.43
2022-11-05T05:02:22.745Z,7.39
2022-11-05T05:04:49.140Z,7.34
2022-11-05T05:07:15.532Z,7.25
2022-11-05T05:09:41.889Z,7.30
2022-11-05T05:12:08.172Z,7.36
2022-11-05T05:14:34.884Z,7.33
2022-11-05T05:17:01.238Z,7.28
2022-11-05T05:19:27.610Z,7.25
2022-11-05T05:21:53.906Z,7.19
2022-11-05T05:24:21.221Z,7.22
2022-11-05T05:26:49.559Z,7.24
2022-11-05T05:29:17.518Z,7.30
2022-11-05T05:31:44.137Z,7.28
2022-11-05T05:34:11.872Z,7.37
2022-11-05T05:36:38.195Z,7.36
2022-11-05T05:39:10.629Z,7.47
2022-11-05T05:41:36.922Z,7.55
2022-11-05T05:44:04.974Z,7.53
2022-11-05T05:46:31.355Z,7.51
2022-11-05T05:48:57.717Z,7.55
2022-11-05T05:51:24.053Z,7.46
2022-11-05T05:53:50.353Z,7.52
2022-11-05T05:56:19.286Z,7.52
2022-11-05T05:58:46.294Z,7.53
2022-11-05T06:01:18.987Z,7.50
2022-11-05T06:03:49.136Z,7.50
2022-11-05T06:06:19.551Z,7.45
2022-11-05T06:08:46.190Z,7.48
2022-11-05T06:11:12.566Z,7.45
2022-11-05T06:13:38.901Z,7.57
2022-11-05T06:16:07.798Z,7.52
2022-11-05T06:18:34.705Z,7.59
2022-11-05T06:21:09.810Z,7.45
2022-11-05T06:23:37.714Z,7.45
2022-11-05T06:26:06.099Z,7.43
2022-11-05T06:28:33.503Z,7.31
2022-11-05T06:31:00.316Z,7.31
2022-11-05T06:33:26.891Z,7.29
2022-11-05T06:35:54.266Z,7.28
2022-11-05T06:38:20.749Z,7.31
2022-11-05T06:40:47.085Z,7.28
2022-11-05T06:43:13.721Z,7.28
2022-11-05T06:45:40.383Z,7.29
2022-11-05T06:48:06.808Z,7.25
2022-11-05T06:50:33.088Z,7.31
2022-11-05T06:53:01.696Z,7.33
2022-11-05T06:55:29.945Z,7.27
2022-11-05T06:57:57.153Z,7.30
2022-11-05T07:00:24.201Z,7.25
2022-11-05T07:02:50.571Z,7.33
2022-11-05T07:05:17.320Z,7.37
2022-11-05T07:07:45.549Z,7.46
2022-11-05T07:10:17.193Z,7.46
2022-11-05T07:12:43.766Z,7.51
2022-11-05T07:15:12.089Z,7.50
2022-11-05T07:17:39.420Z,7.53
2022-11-05T07:20:07.538Z,7.58
2022-11-05T07:22:35.013Z,7.51
2022-11-05T07:25:01.418Z,7.59
2022-11-05T07:27:27.825Z,7.63
2022-11-05T07:29:54.117Z,7.74
2022-11-05T07:32:20.414Z,7.70
2022-11-05T07:34:46.817Z,7.87
2022-11-05T07:37:13.258Z,7.66
2022-11-05T07:39:39.537Z,7.83
2022-11-05T07:42:05.961Z,7.77
2022-11-05T07:44:32.303Z,7.90
2022-11-05T07:46:58.583Z,7.99
2022-11-05T07:49:24.946Z,7.96
2022-11-05T07:51:51.252Z,7.83
2022-11-05T07:54:17.595Z,7.87
2022-11-05T07:56:46.831Z,8.01
2022-11-05T07:59:13.233Z,7.82
2022-11-05T08:01:39.673Z,7.88
2022-11-05T08:04:06.092Z,7.93
2022-11-05T08:06:32.410Z,8.00
2022-11-05T08:08:58.701Z,8.09
2022-11-05T08:11:25.002Z,7.97
2022-11-05T08:13:51.293Z,7.97
2022-11-05T08:16:17.715Z,7.96
2022-11-05T08:18:44.601Z,8.07
2022-11-05T08:21:10.915Z,8.19
2022-11-05T08:23:38.857Z,8.18
2022-11-05T08:26:05.317Z,8.17
2022-11-05T08:28:31.840Z,8.28
2022-11-05T08:30:58.361Z,8.37
2022-11-05T08:33:25.794Z,8.38
2022-11-05T08:35:52.113Z,8.53
2022-11-05T08:38:19.941Z,8.62
2022-11-05T08:40:54.324Z,8.68
2022-11-05T08:43:21.077Z,8.57
2022-11-05T08:45:47.600Z,8.48
2022-11-05T08:48:16.583Z,8.87
2022-11-05T08:50:44.018Z,8.76
2022-11-05T08:53:10.965Z,8.90
2022-11-05T08:55:38.447Z,8.84
2022-11-05T08:58:07.528Z,8.77
2022-11-05T09:00:36.661Z,8.71
2022-11-05T09:03:05.357Z,8.86
2022-11-05T09:05:37.694Z,8.74
2022-11-05T09:08:08.810Z,8.73
2022-11-05T09:10:36.041Z,8.87
2022-11-05T09:13:02.809Z,8.85
2022-11-05T09:15:29.458Z,8.67
2022-11-05T09:17:56.059Z,8.89
2022-11-05T09:20:22.721Z,8.95
2022-11-05T09:22:49.148Z,9.00
2022-11-05T09:25:15.875Z,8.83
2022-11-05T09:27:42.811Z,8.96
2022-11-05T09:30:11.188Z,9.02
2022-11-05T09:32:37.507Z,9.30
2022-11-05T09:35:05.101Z,9.09
2022-11-05T09:37:31.394Z,9.01
2022-11-05T09:39:57.688Z,9.06
2022-11-05T09:42:29.740Z,9.43
2022-11-05T09:45:01.009Z,9.32
2022-11-05T09:47:42.649Z,9.58
2022-11-05T09:50:14.920Z,9.57
2022-11-05T09:52:41.509Z,9.63
2022-11-05T09:55:28.118Z,9.32
2022-11-05T09:58:00.473Z,9.16
2022-11-05T10:00:27.354Z,9.36
2022-11-05T10:02:55.601Z,9.62
2022-11-05T10:05:24.556Z,9.68
2022-11-05T10:07:57.221Z,9.86
2022-11-05T10:10:29.386Z,9.90
2022-11-05T10:13:04.590Z,10.09
2022-11-05T10:15:34.489Z,10.27
2022-11-05T10:18:14.677Z,10.08
2022-11-05T10:20:42.651Z,9.84
2022-11-05T10:23:19.364Z,9.92
2022-11-05T10:25:56.764Z,10.23
2022-11-05T10:28:25.966Z,10.39
2022-11-05T10:30:57.494Z,10.21
2022-11-05T10:33:43.033Z,10.42
2022-11-05T10:36:18.537Z,10.34
2022-11-05T10:38:45.348Z,10.44
2022-11-05T10:41:29.996Z,10.56
2022-11-05T10:44:17.611Z,10.65
2022-11-05T10:47:06.789Z,10.59
2022-11-05T10:49:42.148Z,10.59
2022-11-05T10:52:29.070Z,10.73
2022-11-05T10:54:59.336Z,10.50
2022-11-05T10:57:35.952Z,10.71
2022-11-05T11:00:23.863Z,10.63
2022-11-05T11:02:55.979Z,10.47
2022-11-05T11:05:35.995Z,10.30
2022-11-05T11:08:11.316Z,10.24
2022-11-05T11:10:51.004Z,9.92
2022-11-05T11:13:23.923Z,9.79
2022-11-05T11:15:51.125Z,9.65
2022-11-05T11:18:46.301Z,9.68
2022-11-05T11:21:15.481Z,9.60
2022-11-05T11:23:43.342Z,9.72
2022-11-05T11:26:11.622Z,9.77
2022-11-05T11:28:43.821Z,9.72
2022-11-05T11:31:22.193Z,9.86
2022-11-05T11:33:58.302Z,9.94
2022-11-05T11:36:31.221Z,9.90
2022-11-05T11:39:04.268Z,10.00
2022-11-05T11:41:41.924Z,9.95
2022-11-05T11:44:19.845Z,9.95
2022-11-05T11:46:50.818Z,9.82
2022-11-05T11:49:42.662Z,9.80
2022-11-05T11:52:13.031Z,9.82
2022-11-05T11:54:39.336Z,9.76
2022-11-05T11:57:26.990Z,9.78
2022-11-05T12:00:08.342Z,9.72
2022-11-05T12:03:05.046Z,9.84
2022-11-05T12:05:38.978Z,9.82
2022-11-05T12:08:18.938Z,9.93
2022-11-05T12:10:54.058Z,10.07
2022-11-05T12:13:22.996Z,10.24
2022-11-05T12:16:14.030Z,10.37
2022-11-05T12:19:09.020Z,10.17
2022-11-05T12:21:55.812Z,10.23
2022-11-05T12:24:40.558Z,10.45
2022-11-05T12:27:37.174Z,10.18
2022-11-05T12:30:11.641Z,10.11
2022-11-05T12:32:40.886Z,10.27
2022-11-05T12:35:44.107Z,10.29
2022-11-05T12:38:52.400Z,10.09
2022-11-05T12:41:39.793Z,10.12
2022-11-05T12:44:09.051Z,10.10
2022-11-05T12:46:48.849Z,10.07
2022-11-05T12:49:33.192Z,10.15
2022-11-05T12:51:59.666Z,10.23
2022-11-05T12:54:34.667Z,10.12
2022-11-05T12:57:03.614Z,10.42
2022-11-05T12:59:40.873Z,10.27
2022-11-05T13:02:19.023Z,10.31
2022-11-05T13:04:58.957Z,10.64
2022-11-05T13:07:31.520Z,10.67
2022-11-05T13:10:20.999Z,11.21
2022-11-05T13:13:02.685Z,11.01
2022-11-05T13:15:33.688Z,10.91
2022-11-05T13:18:05.378Z,11.17
2022-11-05T13:20:37.691Z,10.90
2022-11-05T13:23:16.154Z,11.09
2022-11-05T13:25:50.508Z,11.22
2022-11-05T13:28:32.688Z,11.10
2022-11-05T13:31:02.837Z,10.93
2022-11-05T13:33:36.271Z,10.96
2022-11-05T13:36:47.120Z,10.79
2022-11-05T13:39:21.478Z,10.69
2022-11-05T13:42:25.052Z,10.66
2022-11-05T13:45:25.753Z,10.59
2022-11-05T13:48:25.539Z,10.41
2022-11-05T13:50:54.850Z,10.74
2022-11-05T13:53:39.555Z,10.72
2022-11-05T13:56:24.677Z,10.74
2022-11-05T13:59:15.897Z,10.46
2022-11-05T14:01:48.350Z,10.58
2022-11-05T14:04:47.539Z,10.73
2022-11-05T14:07:24.946Z,10.61
2022-11-05T14:10:01.426Z,10.86
2022-11-05T14:12:38.031Z,11.05
2022-11-05T14:15:31.624Z,11.07
2022-11-05T14:18:07.309Z,11.19
2022-11-05T14:20:33.544Z,11.13
2022-11-05T14:23:18.860Z,11.10
2022-11-05T14:25:45.132Z,10.75
2022-11-05T14:28:38.202Z,10.63
2022-11-05T14:31:47.204Z,10.31
2022-11-05T14:34:15.705Z,10.16
2022-11-05T14:37:03.269Z,10.14
2022-11-05T14:39:32.181Z,10.04
2022-11-05T14:42:10.336Z,9.94
2022-11-05T14:44:54.120Z,9.99
2022-11-05T14:47:22.879Z,9.99
2022-11-05T14:49:53.792Z,9.99
2022-11-05T14:52:20.681Z,9.96
2022-11-05T14:54:50.612Z,9.94
2022-11-05T14:57:42.560Z,9.96
2022-11-05T15:00:40.627Z,9.95
2022-11-05T15:03:45.961Z,9.98
2022-11-05T15:06:29.796Z,9.82
2022-11-05T15:09:11.557Z,9.86
2022-11-05T15:11:40.591Z,9.74
2022-11-05T15:14:40.321Z,9.82
2022-11-05T15:17:22.351Z,9.49
2022-11-05T15:19:50.991Z,9.32
2022-11-05T15:22:30.460Z,9.24
2022-11-05T15:24:56.866Z,9.34
2022-11-05T15:27:40.379Z,9.43
2022-11-05T15:30:20.489Z,9.35
2022-11-05T15:32:47.027Z,9.21
2022-11-05T15:35:20.409Z,9.29
2022-11-05T15:37:53.343Z,9.33
2022-11-05T15:40:26.444Z,9.32
2022-11-05T15:43:10.807Z,9.34
2022-11-05T15:45:37.331Z,9.34
2022-11-05T15:48:13.495Z,9.28
2022-11-05T15:50:40.480Z,9.31
2022-11-05T15:53:44.173Z,9.32
2022-11-05T15:56:09.988Z,9.22
2022-11-05T15:58:48.863Z,9.18
2022-11-05T16:01:21.431Z,9.17
2022-11-05T16:03:48.255Z,9.11
2022-11-05T16:06:14.594Z,8.97
2022-11-05T16:08:47.198Z,9.03
2022-11-05T16:11:22.299Z,9.16
2022-11-05T16:13:48.757Z,9.09
2022-11-05T16:16:15.028Z,9.15
2022-11-05T16:18:42.528Z,9.05
2022-11-05T16:21:10.287Z,9.08
2022-11-05T16:23:48.793Z,9.08
2022-11-05T16:26:55.927Z,9.10
2022-11-05T16:29:22.517Z,9.13
2022-11-05T16:31:51.305Z,8.95
2022-11-05T16:34:28.358Z,8.88
2022-11-05T16:36:56.787Z,8.91
2022-11-05T16:39:23.688Z,8.91
2022-11-05T16:41:49.998Z,9.01
2022-11-05T16:44:16.388Z,9.03
2022-11-05T16:46:47.539Z,8.98
2022-11-05T16:49:14.613Z,9.01
2022-11-05T16:51:41.533Z,8.98
2022-11-05T16:54:08.018Z,8.83
2022-11-05T16:56:34.829Z,8.79
2022-11-05T16:59:02.641Z,8.75
2022-11-05T17:01:29.233Z,8.64
2022-11-05T17:03:55.572Z,8.59
2022-11-05T17:06:22.175Z,8.57
2022-11-05T17:08:48.822Z,8.48
2022-11-05T17:11:17.311Z,8.52
2022-11-05T17:13:44.354Z,8.57
2022-11-05T17:16:17.178Z,8.51
2022-11-05T17:18:44.074Z,8.48
2022-11-05T17:21:12.493Z,8.43
2022-11-05T17:23:38.797Z,8.31
2022-11-05T17:26:09.068Z,8.35
2022-11-05T17:28:37.585Z,8.49
2022-11-05T17:31:06.725Z,8.52
2022-11-05T17:33:33.568Z,8.40
2022-11-05T17:36:00.255Z,8.38
2022-11-05T17:38:26.910Z,8.45
2022-11-05T17:40:53.765Z,8.46
2022-11-05T17:43:20.798Z,8.41
2022-11-05T17:45:50.032Z,8.43
2022-11-05T17:48:16.846Z,8.48
2022-11-05T17:50:45.365Z,8.47
2022-11-05T17:53:13.495Z,8.44
2022-11-05T17:55:41.889Z,8.44
2022-11-05T17:58:08.444Z,8.42
2022-11-05T18:00:35.473Z,8.43
2022-11-05T18:03:02.051Z,8.40
2022-11-05T18:05:30.308Z,8.42
2022-11-05T18:07:57.447Z,8.34
2022-11-05T18:10:24.412Z,8.45
2022-11-05T18:12:51.405Z,8.30
2022-11-05T18:15:18.204Z,8.35
2022-11-05T18:17:45.648Z,8.39
2022-11-05T18:20:19.375Z,8.46
2022-11-05T18:22:47.942Z,8.30
2022-11-05T18:25:14.363Z,8.35
2022-11-05T18:27:41.147Z,8.23
2022-11-05T18:30:08.774Z,8.34
2022-11-05T18:32:35.779Z,8.35
2022-11-05T18:35:02.097Z,8.39
2022-11-05T18:37:28.421Z,8.30
2022-11-05T18:39:54.738Z,8.34
2022-11-05T18:42:21.341Z,8.27
2022-11-05T18:44:48.505Z,8.36
2022-11-05T18:47:14.864Z,8.46
2022-11-05T18:49:41.145Z,8.39
2022-11-05T18:52:07.472Z,8.23
2022-11-05T18:54:34.027Z,8.27
2022-11-05T18:57:00.391Z,8.32
2022-11-05T18:59:37.617Z,8.41
2022-11-05T19:02:05.960Z,8.40
2022-11-05T19:04:32.746Z,8.39
2022-11-05T19:07:04.443Z,8.37
2022-11-05T19:13:18.638Z,8.30
2022-11-05T19:15:44.992Z,8.26
2022-11-05T19:18:11.559Z,8.20
2022-11-05T19:20:38.875Z,8.07
2022-11-05T19:23:05.296Z,7.89
2022-11-05T19:25:31.860Z,7.90
2022-11-05T19:27:58.526Z,7.80
2022-11-05T19:30:25.902Z,7.73
2022-11-05T19:32:52.206Z,7.81
2022-11-05T19:35:18.549Z,7.74
2022-11-05T19:37:45.101Z,7.66
2022-11-05T19:40:11.838Z,7.63
2022-11-05T19:42:38.382Z,7.65
2022-11-05T19:45:30.285Z,7.54
2022-11-05T19:47:51.472Z,7.55
2022-11-05T19:50:17.904Z,7.50
2022-11-05T19:52:44.207Z,7.55
2022-11-05T19:55:12.229Z,7.55
2022-11-05T19:57:38.795Z,7.58
2022-11-05T20:00:05.768Z,7.60
2022-11-05T20:02:32.132Z,7.52
2022-11-05T20:04:58.523Z,7.48
2022-11-05T20:07:24.841Z,7.43
2022-11-05T20:09:51.151Z,7.34
2022-11-05T20:12:17.802Z,7.34
2022-11-05T20:14:44.817Z,7.20
2022-11-05T20:17:11.137Z,7.16
2022-11-05T20:19:37.417Z,7.11
2022-11-05T20:22:03.702Z,7.10
2022-11-05T20:24:30.033Z,7.07
2022-11-05T20:26:57.014Z,7.00
2022-11-05T20:29:29.111Z,6.90
2022-11-05T20:32:01.947Z,6.90
2022-11-05T20:34:30.278Z,6.89
2022-11-05T20:36:56.563Z,6.92
2022-11-05T20:39:22.941Z,6.86
2022-11-05T20:41:49.322Z,6.82
2022-11-05T20:44:15.615Z,6.83
2022-11-05T20:46:41.941Z,6.82
2022-11-05T20:49:08.316Z,6.66
2022-11-05T20:51:34.628Z,6.61
2022-11-05T20:54:01.256Z,6.65
2022-11-05T20:56:31.169Z,6.59
2022-11-05T20:58:59.303Z,6.53
2022-11-05T21:01:32.234Z,6.47
2022-11-05T21:03:59.682Z,6.44
2022-11-05T21:06:26.493Z,6.40
2022-11-05T21:08:53.040Z,6.33
2022-11-05T21:11:19.904Z,6.17
2022-11-05T21:13:46.771Z,6.10
2022-11-05T21:16:18.021Z,6.15
2022-11-05T21:18:45.942Z,6.04
2022-11-05T21:21:15.323Z,6.03
2022-11-05T21:23:41.912Z,5.95
2022-11-05T21:26:11.958Z,5.92
2022-11-05T21:28:39.876Z,5.84
2022-11-05T21:31:07.306Z,5.83
2022-11-05T21:33:33.995Z,5.82
2022-11-05T21:36:09.004Z,5.76
2022-11-05T21:38:35.537Z,5.75
2022-11-05T21:41:02.909Z,5.59
2022-11-05T21:43:29.397Z,5.60
2022-11-05T21:45:55.728Z,5.53
2022-11-05T21:48:22.003Z,5.54
2022-11-05T21:51:10.764Z,5.47
2022-11-05T21:53:55.393Z,5.40
2022-11-05T21:56:42.749Z,5.44
2022-11-05T21:59:31.024Z,5.38
2022-11-05T22:02:01.394Z,5.44
2022-11-05T22:04:29.831Z,5.35
2022-11-05T22:06:56.918Z,5.35
2022-11-05T22:09:24.102Z,5.35
2022-11-05T22:11:50.445Z,5.34
2022-11-05T22:14:16.764Z,5.38
2022-11-05T22:16:43.226Z,5.35
2022-11-05T22:19:09.542Z,5.36
2022-11-05T22:21:35.822Z,5.29
2022-11-05T22:24:02.161Z,5.29
2022-11-05T22:26:28.564Z,5.21
2022-11-05T22:28:55.769Z,5.20
2022-11-05T22:31:22.259Z,5.21
2022-11-05T22:33:49.099Z,5.21
2022-11-05T22:36:15.767Z,5.21
2022-11-05T22:38:42.231Z,5.21
2022-11-05T22:41:14.833Z,5.10
2022-11-05T22:43:41.637Z,5.12
2022-11-05T22:46:10.890Z,5.21
2022-11-05T22:48:38.843Z,5.18
2022-11-05T22:51:07.680Z,5.14
2022-11-05T22:53:35.670Z,5.09
2022-11-05T22:56:07.272Z,5.08
2022-11-05T22:58:33.677Z,5.07
2022-11-05T23:01:00.793Z,5.04
2022-11-05T23:03:28.827Z,4.98
2022-11-05T23:06:26.893Z,4.99
2022-11-05T23:09:11.670Z,5.03
2022-11-05T23:11:40.588Z,4.93
2022-11-05T23:14:09.379Z,5.02
2022-11-05T23:16:55.037Z,5.01
2022-11-05T23:19:40.797Z,5.04
2022-11-05T23:22:31.206Z,5.03
2022-11-05T23:24:57.540Z,4.95
2022-11-05T23:27:24.024Z,4.94
2022-11-05T23:30:12.853Z,4.83
2022-11-05T23:32:39.213Z,4.88
2022-11-05T23:35:06.347Z,4.81
2022-11-05T23:37:51.565Z,4.68
2022-11-05T23:40:21.056Z,4.62
2022-11-05T23:43:06.457Z,4.50
2022-11-05T23:45:52.357Z,4.55
2022-11-05T23:48:21.769Z,4.52
2022-11-05T23:50:56.152Z,4.36
2022-11-05T23:53:22.975Z,4.31
2022-11-05T23:55:49.917Z,4.28
2022-11-05T23:58:16.922Z,4.37
